Time;durP1;ratioP1;P1;durP2;ratioP2;P2;SDS_P1;SDS_P2;PMS_P1;PMS_P2;Temp;Humidity;BMP_temperature;BMP_pressure;BME280_temperature;BME280_humidity;BME280_pressure;Samples;Min_cycle;Max_cycle;Signal;HPM_P1;HPM_P2
2022/04/01 00:00:15;;;;;;;;;9.67;9.67;17.90;54.60;;;;;;4955407;28;8780;-62
2022/04/01 00:02:41;;;;;;;;;7.33;7.00;17.80;55.20;;;;;;4970315;28;8815;-64
2022/04/01 00:05:07;;;;;;;;;14.33;13.00;17.70;55.00;;;;;;4974691;28;8859;-63
2022/04/01 00:07:35;;;;;;;;;15.00;13.00;17.90;54.90;;;;;;4974628;28;8794;-63
2022/04/01 00:10:00;;;;;;;;;14.67;14.67;17.90;55.20;;;;;;4974423;28;8888;-63
2022/04/01 00:12:26;;;;;;;;;17.00;17.00;18.20;54.10;;;;;;4974374;28;8988;-64
2022/04/01 00:14:53;;;;;;;;;19.67;18.67;18.10;54.10;;;;;;4974201;28;8952;-65
2022/04/01 00:17:19;;;;;;;;;18.67;17.00;17.50;57.00;;;;;;4974356;28;8782;-65
2022/04/01 00:19:45;;;;;;;;;16.00;16.00;17.40;56.80;;;;;;4974234;28;8887;-64
2022/04/01 00:22:11;;;;;;;;;18.00;15.67;17.10;58.30;;;;;;4974347;28;8865;-62
2022/04/01 00:24:37;;;;;;;;;20.67;17.33;17.60;56.30;;;;;;4950028;28;8831;-62
2022/04/01 00:27:03;;;;;;;;;17.67;17.00;17.80;55.40;;;;;;4936767;29;8813;-61
2022/04/01 00:29:29;;;;;;;;;14.00;14.00;17.70;56.80;;;;;;4949116;29;8888;-62
2022/04/01 00:31:58;;;;;;;;;18.00;16.33;17.90;55.70;;;;;;4953892;29;8793;-60
2022/04/01 00:34:29;;;;;;;;;17.00;16.67;17.30;57.80;;;;;;4949854;28;8899;-62
2022/04/01 00:36:57;;;;;;;;;19.00;15.67;17.30;57.70;;;;;;4953886;28;8789;-64
2022/04/01 00:39:24;;;;;;;;;21.33;19.00;17.30;58.80;;;;;;4950092;29;9018;-62
2022/04/01 00:41:52;;;;;;;;;14.67;12.67;17.10;59.10;;;;;;4953634;29;8809;-61
2022/04/01 00:44:21;;;;;;;;;22.00;19.67;17.60;57.60;;;;;;4952325;28;8975;-60
2022/04/01 00:46:50;;;;;;;;;24.00;20.33;17.80;56.90;;;;;;4950313;28;8851;-61
2022/04/01 00:49:18;;;;;;;;;17.33;16.33;17.90;56.30;;;;;;4954722;28;8812;-64
2022/04/01 00:51:46;;;;;;;;;23.67;21.33;17.60;56.60;;;;;;4957583;28;8811;-62
2022/04/01 00:54:13;;;;;;;;;19.00;16.67;17.60;57.40;;;;;;4958313;28;8831;-64
2022/04/01 00:56:39;;;;;;;;;16.00;16.00;17.70;56.30;;;;;;4958140;28;8780;-64
2022/04/01 00:59:08;;;;;;;;;16.33;14.67;17.90;55.20;;;;;;4958095;28;8798;-64
2022/04/01 01:01:35;;;;;;;;;13.67;13.67;18.20;54.30;;;;;;4958273;28;8780;-63
2022/04/01 01:04:07;;;;;;;;;7.33;7.33;18.20;54.10;;;;;;4958006;28;8828;-63
2022/04/01 01:06:37;;;;;;;;;12.67;12.00;18.30;54.90;;;;;;4958031;28;8823;-62
2022/04/01 01:09:03;;;;;;;;;14.00;13.00;18.30;53.90;;;;;;4958411;28;8816;-64
2022/04/01 01:11:31;;;;;;;;;9.67;9.67;18.30;53.90;;;;;;4958296;28;8756;-63
2022/04/01 01:13:59;;;;;;;;;7.00;7.00;18.00;54.30;;;;;;4958669;28;8792;-62
2022/04/01 01:16:25;;;;;;;;;13.67;13.00;18.20;54.50;;;;;;4958760;28;8842;-62
2022/04/01 01:19:01;;;;;;;;;14.00;13.33;18.20;54.40;;;;;;4958858;28;8784;-64
2022/04/01 01:21:28;;;;;;;;;15.33;13.33;18.20;54.70;;;;;;4958411;28;8859;-63
2022/04/01 01:24:05;;;;;;;;;15.33;15.33;17.50;56.50;;;;;;4957662;28;8816;-62
2022/04/01 01:26:32;;;;;;;;;16.67;16.67;17.80;55.80;;;;;;4958411;28;8780;-62
2022/04/01 01:28:59;;;;;;;;;23.33;21.33;17.80;56.60;;;;;;4958356;28;8788;-62
2022/04/01 01:31:25;;;;;;;;;15.33;14.00;17.70;58.70;;;;;;4958386;28;8776;-64
2022/04/01 01:33:54;;;;;;;;;18.33;18.00;17.80;56.90;;;;;;4958238;28;8816;-65
2022/04/01 01:36:20;;;;;;;;;22.67;19.00;17.40;58.90;;;;;;4957252;28;8811;-63
2022/04/01 01:38:46;;;;;;;;;15.00;14.00;17.50;58.80;;;;;;4958312;28;8788;-63
2022/04/01 01:41:12;;;;;;;;;20.67;18.67;17.80;57.10;;;;;;4958134;28;8811;-63
2022/04/01 01:43:39;;;;;;;;;18.67;17.67;18.10;56.40;;;;;;4958256;28;8836;-62
2022/04/01 01:46:05;;;;;;;;;20.00;18.33;18.10;55.30;;;;;;4958198;28;8832;-63
2022/04/01 01:48:31;;;;;;;;;18.67;17.00;18.10;56.00;;;;;;4957863;28;8830;-62
2022/04/01 01:56:25;;;;;;;;;14.00;13.33;18.10;54.50;;;;;;4957915;28;8760;-63
2022/04/01 01:58:51;;;;;;;;;12.00;12.00;18.10;54.60;;;;;;4958027;28;8819;-64
2022/04/01 02:01:17;;;;;;;;;9.33;8.33;17.60;56.40;;;;;;4957337;28;8866;-64
2022/04/01 02:03:42;;;;;;;;;13.33;10.33;17.80;55.80;;;;;;4956573;28;8887;-62
2022/04/01 02:06:09;;;;;;;;;11.67;10.00;18.00;55.20;;;;;;4957572;28;8851;-59
2022/04/01 02:08:35;;;;;;;;;12.33;11.33;18.00;54.70;;;;;;4957335;28;8799;-64
2022/04/01 02:11:01;;;;;;;;;5.00;3.00;18.20;54.10;;;;;;4957815;28;8769;-62
2022/04/01 02:13:27;;;;;;;;;8.67;8.00;18.20;55.10;;;;;;4957439;28;8784;-60
2022/04/01 02:15:54;;;;;;;;;11.00;11.00;18.20;55.10;;;;;;4957814;28;9502;-62
2022/04/01 02:18:23;;;;;;;;;13.00;12.00;18.00;55.50;;;;;;4957367;28;8808;-62
2022/04/01 02:20:50;;;;;;;;;10.00;8.33;18.10;55.20;;;;;;4957411;28;8796;-60
2022/04/01 02:23:16;;;;;;;;;9.67;9.67;18.20;54.30;;;;;;4957277;28;8846;-62
2022/04/01 02:25:43;;;;;;;;;9.67;6.33;18.20;55.30;;;;;;4957275;28;8804;-60
2022/04/01 02:28:10;;;;;;;;;7.67;7.00;18.30;53.90;;;;;;4957218;28;8924;-62
2022/04/01 02:30:36;;;;;;;;;8.33;7.00;18.10;54.60;;;;;;4957505;28;8886;-61
2022/04/01 02:33:02;;;;;;;;;7.00;7.00;17.80;56.40;;;;;;4957347;28;8788;-62
2022/04/01 02:35:29;;;;;;;;;5.67;5.33;17.90;55.30;;;;;;4957174;28;8792;-64
2022/04/01 02:37:55;;;;;;;;;6.67;6.67;16.90;59.10;;;;;;4956956;28;9414;-64
2022/04/01 02:40:22;;;;;;;;;7.00;7.00;17.00;59.00;;;;;;4957294;28;9450;-64
2022/04/01 02:42:50;;;;;;;;;7.33;7.00;16.90;59.70;;;;;;4957145;28;8834;-63
2022/04/01 02:45:16;;;;;;;;;7.33;7.00;16.60;61.20;;;;;;4956971;28;8796;-63
2022/04/01 02:47:42;;;;;;;;;11.00;10.67;17.00;60.20;;;;;;4956878;28;8796;-63
2022/04/01 02:50:08;;;;;;;;;11.00;10.00;17.40;58.20;;;;;;4956589;28;8887;-64
2022/04/01 02:52:34;;;;;;;;;10.00;9.33;17.90;56.20;;;;;;4957018;28;9663;-64
2022/04/01 02:55:00;;;;;;;;;11.00;11.00;17.90;55.40;;;;;;4956718;28;8791;-63
2022/04/01 02:57:26;;;;;;;;;14.00;13.00;18.10;55.10;;;;;;4956687;28;8805;-62
2022/04/01 02:59:52;;;;;;;;;14.67;13.00;18.20;54.70;;;;;;4956918;28;8862;-59
2022/04/01 03:02:18;;;;;;;;;14.33;13.67;18.00;55.60;;;;;;4956543;28;8836;-62
2022/04/01 03:04:45;;;;;;;;;13.00;13.00;18.00;55.40;;;;;;4956587;28;8807;-61
2022/04/01 03:07:11;;;;;;;;;13.00;12.33;18.00;55.30;;;;;;4956601;28;8792;-62
2022/04/01 03:09:36;;;;;;;;;14.00;12.00;18.10;54.50;;;;;;4956758;28;8796;-62
2022/04/01 03:12:03;;;;;;;;;19.33;17.33;18.00;55.20;;;;;;4956128;28;8797;-62
2022/04/01 03:14:29;;;;;;;;;24.33;19.00;18.10;54.30;;;;;;4955869;28;8798;-61
2022/04/01 03:16:55;;;;;;;;;10.33;10.00;17.40;56.70;;;;;;4956812;28;8828;-60
2022/04/01 03:19:20;;;;;;;;;9.67;9.00;16.60;60.60;;;;;;4956606;28;8800;-60
2022/04/01 03:21:46;;;;;;;;;9.00;9.00;16.00;64.20;;;;;;4956304;28;8942;-61
2022/04/01 03:24:12;;;;;;;;;15.00;13.67;15.70;65.80;;;;;;4956326;28;8828;-60
2022/04/01 03:26:39;;;;;;;;;12.00;12.00;15.50;67.40;;;;;;4956221;28;8919;-62
2022/04/01 03:29:06;;;;;;;;;11.67;11.33;15.40;68.80;;;;;;4956240;28;8804;-62
2022/04/01 03:31:33;;;;;;;;;11.00;10.00;15.60;67.70;;;;;;4956542;28;8863;-60
2022/04/01 03:33:59;;;;;;;;;12.33;11.00;15.80;66.00;;;;;;4956245;28;8859;-62
2022/04/01 03:36:25;;;;;;;;;13.00;12.67;15.70;67.10;;;;;;4956150;28;8910;-61
2022/04/01 03:38:51;;;;;;;;;19.67;17.00;15.40;69.80;;;;;;4956119;28;8879;-60
2022/04/01 03:41:19;;;;;;;;;14.00;14.00;15.20;70.30;;;;;;4956216;29;8800;-61
2022/04/01 03:43:45;;;;;;;;;12.67;11.67;15.20;71.10;;;;;;4955984;29;8851;-61
2022/04/01 03:46:13;;;;;;;;;11.33;11.33;15.10;71.90;;;;;;4956324;29;8808;-60
2022/04/01 03:48:45;;;;;;;;;15.67;12.67;15.30;70.60;;;;;;4956031;29;8872;-61
2022/04/01 03:51:19;;;;;;;;;13.67;13.67;15.40;69.70;;;;;;4955982;28;8820;-61
2022/04/01 03:54:02;;;;;;;;;12.00;11.00;15.70;68.10;;;;;;4955929;28;8788;-61
2022/04/01 03:56:36;;;;;;;;;8.00;8.00;16.10;65.50;;;;;;4956360;28;8788;-59
2022/04/01 03:59:07;;;;;;;;;9.00;9.00;16.50;63.60;;;;;;4956072;29;8785;-61
2022/04/01 04:01:35;;;;;;;;;9.33;9.33;16.80;62.30;;;;;;4956305;29;8804;-61
2022/04/01 04:04:03;;;;;;;;;11.00;10.00;17.10;60.80;;;;;;4955851;29;8796;-60
2022/04/01 04:06:28;;;;;;;;;10.00;9.00;17.00;60.80;;;;;;4956159;29;8793;-61
2022/04/01 04:09:00;;;;;;;;;11.67;11.00;16.40;62.70;;;;;;4955908;28;9422;-62
2022/04/01 04:11:31;;;;;;;;;14.00;11.00;16.50;62.60;;;;;;4956159;28;8895;-62
2022/04/01 04:13:58;;;;;;;;;9.33;9.33;16.20;64.20;;;;;;4955714;28;8855;-61
2022/04/01 04:16:47;;;;;;;;;14.33;12.67;15.80;66.20;;;;;;4956060;29;8824;-59
2022/04/01 04:19:13;;;;;;;;;13.00;11.00;15.60;67.60;;;;;;4947237;29;8831;-59
2022/04/01 04:22:07;;;;;;;;;10.00;10.00;15.90;66.20;;;;;;4940541;29;8799;-59
2022/04/01 04:24:43;;;;;;;;;11.33;11.33;15.80;66.50;;;;;;4939671;28;8812;-61
2022/04/01 04:27:16;;;;;;;;;8.00;8.00;15.60;68.40;;;;;;4959680;28;8817;-62
2022/04/01 04:29:50;;;;;;;;;10.67;9.00;15.40;70.30;;;;;;4959394;28;8907;-61
2022/04/01 04:32:33;;;;;;;;;9.67;9.00;15.40;70.40;;;;;;4959574;28;8784;-60
2022/04/01 04:35:04;;;;;;;;;8.00;7.00;15.70;68.70;;;;;;4959477;28;8871;-62
2022/04/01 04:37:37;;;;;;;;;10.33;8.33;15.30;70.80;;;;;;4959388;28;8772;-60
2022/04/01 04:40:05;;;;;;;;;11.67;10.00;15.40;70.70;;;;;;4952073;28;8954;-59
2022/04/01 04:42:33;;;;;;;;;17.00;17.00;16.00;67.40;;;;;;4951404;28;8832;-61
2022/04/01 04:44:59;;;;;;;;;16.33;12.00;16.10;66.60;;;;;;4954238;28;8800;-61
2022/04/01 04:47:27;;;;;;;;;18.67;16.00;16.30;65.30;;;;;;4948767;29;8806;-61
2022/04/01 04:49:56;;;;;;;;;13.67;12.00;16.60;63.40;;;;;;4945656;28;8844;-60
2022/04/01 04:52:30;;;;;;;;;11.67;9.33;16.80;61.80;;;;;;4958939;28;8819;-62
2022/04/01 04:54:56;;;;;;;;;15.00;13.33;17.00;61.50;;;;;;4951414;28;8885;-57
2022/04/01 04:57:22;;;;;;;;;18.00;15.67;17.30;59.50;;;;;;4950118;28;8906;-62
2022/04/01 04:59:50;;;;;;;;;13.67;13.00;17.30;60.00;;;;;;4949903;28;8788;-61
2022/04/01 05:02:44;;;;;;;;;14.67;13.67;17.50;58.90;;;;;;4958297;28;8934;-64
2022/04/01 05:05:19;;;;;;;;;18.00;16.33;17.20;60.20;;;;;;4934070;29;8799;-61
2022/04/01 05:08:07;;;;;;;;;15.00;15.00;17.20;59.80;;;;;;4939512;29;8798;-61
2022/04/01 05:10:51;;;;;;;;;16.33;14.67;16.90;61.30;;;;;;4939564;29;8818;-62
2022/04/01 05:13:29;;;;;;;;;15.67;15.67;16.20;65.10;;;;;;4939271;29;8814;-63
2022/04/01 05:16:07;;;;;;;;;13.67;13.67;15.80;68.10;;;;;;4939418;29;8819;-63
2022/04/01 05:18:40;;;;;;;;;17.00;17.00;15.50;70.30;;;;;;4939649;29;8798;-63
2022/04/01 05:21:18;;;;;;;;;16.33;16.33;15.40;71.50;;;;;;4939300;29;8802;-62
2022/04/01 05:23:55;;;;;;;;;13.00;13.00;15.50;71.30;;;;;;4939224;29;8845;-64
2022/04/01 05:26:38;;;;;;;;;15.00;13.33;15.50;72.00;;;;;;4939289;29;8775;-64
2022/04/01 05:29:07;;;;;;;;;16.00;15.33;15.30;73.80;;;;;;4939082;29;8790;-63
2022/04/01 05:31:52;;;;;;;;;9.33;9.33;15.50;71.80;;;;;;4939119;29;8921;-62
2022/04/01 05:34:46;;;;;;;;;21.33;20.00;15.50;72.50;;;;;;4939291;29;9626;-64
2022/04/01 05:37:14;;;;;;;;;21.33;21.00;15.50;72.40;;;;;;4938439;29;9628;-62
2022/04/01 05:39:42;;;;;;;;;16.33;15.33;15.70;71.20;;;;;;4938883;29;8786;-63
2022/04/01 05:42:08;;;;;;;;;14.33;14.33;15.70;71.20;;;;;;4938757;29;8810;-63
2022/04/01 05:44:36;;;;;;;;;14.67;12.33;16.20;67.70;;;;;;4937758;29;9723;-63
2022/04/01 05:47:06;;;;;;;;;14.67;14.67;15.90;69.90;;;;;;4939210;29;8842;-63
2022/04/01 05:49:32;;;;;;;;;19.33;19.33;16.20;68.20;;;;;;4937538;29;8902;-63
2022/04/01 05:51:58;;;;;;;;;17.67;16.67;16.60;65.60;;;;;;4938714;29;8790;-61
2022/04/01 05:54:26;;;;;;;;;21.00;17.67;16.50;66.90;;;;;;4938931;29;8787;-63
2022/04/01 05:56:52;;;;;;;;;16.00;14.67;16.80;64.60;;;;;;4938649;29;8779;-63
2022/04/01 05:59:21;;;;;;;;;12.33;12.33;16.70;66.00;;;;;;4938665;29;8787;-64
2022/04/01 06:02:06;;;;;;;;;16.00;16.00;16.80;65.80;;;;;;4938498;29;8841;-62
2022/04/01 06:05:12;;;;;;;;;21.67;19.00;16.90;65.00;;;;;;4938669;29;8778;-64
2022/04/01 06:08:14;;;;;;;;;16.33;15.00;16.70;67.70;;;;;;4937521;29;8799;-63
2022/04/01 06:11:09;;;;;;;;;10.33;10.33;16.60;68.80;;;;;;4938437;29;8787;-62
2022/04/01 06:14:07;;;;;;;;;14.33;13.67;16.70;68.50;;;;;;4920745;29;8811;-63
2022/04/01 06:17:00;;;;;;;;;12.67;12.67;16.80;68.10;;;;;;4945161;28;8809;-62
2022/04/01 06:19:40;;;;;;;;;14.67;12.33;17.50;64.20;;;;;;4957358;28;8802;-64
2022/04/01 06:22:14;;;;;;;;;19.67;16.67;17.70;62.60;;;;;;4956626;28;8866;-63
2022/04/01 06:25:11;;;;;;;;;15.00;13.67;17.40;64.20;;;;;;4957135;28;8788;-63
2022/04/01 06:27:45;;;;;;;;;14.33;14.00;17.40;64.70;;;;;;4956821;28;8799;-62
2022/04/01 06:30:14;;;;;;;;;12.33;12.33;17.20;64.80;;;;;;4957191;28;8784;-61
2022/04/01 06:32:55;;;;;;;;;11.00;10.67;17.20;64.90;;;;;;4957366;28;8803;-62
2022/04/01 06:35:44;;;;;;;;;10.33;9.67;17.40;63.80;;;;;;4957422;28;8851;-60
2022/04/01 06:38:20;;;;;;;;;12.00;11.33;17.30;64.10;;;;;;4956838;28;8810;-62
2022/04/01 06:41:09;;;;;;;;;14.33;12.67;17.20;64.70;;;;;;4955912;28;8863;-61
2022/04/01 06:43:35;;;;;;;;;13.00;11.67;17.30;65.60;;;;;;4957168;28;9474;-60
2022/04/01 06:46:03;;;;;;;;;16.00;14.33;17.80;62.90;;;;;;4957089;28;8816;-61
2022/04/01 06:48:30;;;;;;;;;22.33;19.67;17.80;62.20;;;;;;4956793;28;8788;-61
2022/04/01 06:50:57;;;;;;;;;24.67;24.33;17.70;63.40;;;;;;4956626;28;8828;-63
2022/04/01 06:53:22;;;;;;;;;21.33;21.33;17.60;64.60;;;;;;4956599;28;8816;-62
2022/04/01 06:55:48;;;;;;;;;19.33;19.33;17.70;63.60;;;;;;4956606;28;8834;-62
2022/04/01 06:58:14;;;;;;;;;19.00;19.00;17.90;62.40;;;;;;4956611;28;8788;-61
2022/04/01 07:00:41;;;;;;;;;17.00;15.00;18.00;62.20;;;;;;4956771;28;8796;-61
2022/04/01 07:03:08;;;;;;;;;15.33;15.33;18.40;60.60;;;;;;4956363;28;8832;-60
2022/04/01 07:05:35;;;;;;;;;12.67;12.67;18.20;61.70;;;;;;4956616;28;8804;-62
2022/04/01 07:08:06;;;;;;;;;4.00;4.00;18.20;61.90;;;;;;4956487;28;8918;-61
2022/04/01 07:10:33;;;;;;;;;14.00;12.67;18.30;58.60;;;;;;4956357;28;8792;-64
2022/04/01 07:12:59;;;;;;;;;18.33;15.33;18.30;58.00;;;;;;4956694;28;8799;-61
2022/04/01 07:15:25;;;;;;;;;11.00;10.67;18.60;57.10;;;;;;4956313;28;8847;-61
2022/04/01 07:17:51;;;;;;;;;13.00;13.00;18.50;58.00;;;;;;4956075;28;8807;-61
2022/04/01 07:20:20;;;;;;;;;10.00;8.33;18.50;58.40;;;;;;4956260;28;8792;-61
2022/04/01 07:22:46;;;;;;;;;13.67;12.67;18.60;58.10;;;;;;4955913;28;8805;-61
2022/04/01 07:25:12;;;;;;;;;14.00;14.00;18.60;58.30;;;;;;4956079;28;8757;-61
2022/04/01 07:27:39;;;;;;;;;17.00;13.33;18.70;57.70;;;;;;4955874;28;8780;-61
2022/04/01 07:30:08;;;;;;;;;13.00;9.67;19.10;54.90;;;;;;4955860;28;8789;-61
2022/04/01 07:32:35;;;;;;;;;8.00;8.00;19.00;55.20;;;;;;4953612;28;8780;-61
2022/04/01 07:35:04;;;;;;;;;6.67;6.67;19.20;53.40;;;;;;4956111;28;8780;-61
2022/04/01 07:37:31;;;;;;;;;6.33;5.67;19.10;51.10;;;;;;4956408;28;8776;-60
2022/04/01 07:39:57;;;;;;;;;7.67;6.67;19.30;50.90;;;;;;4956231;28;8802;-60
2022/04/01 07:42:24;;;;;;;;;6.00;6.00;19.30;49.90;;;;;;4956065;28;8874;-62
2022/04/01 07:44:51;;;;;;;;;10.00;8.00;19.50;49.50;;;;;;4955747;28;11519;-60
2022/04/01 07:47:18;;;;;;;;;7.00;6.00;19.70;48.60;;;;;;4956196;29;9367;-60
2022/04/01 07:49:46;;;;;;;;;8.33;6.33;19.70;48.10;;;;;;4956043;29;11562;-60
2022/04/01 07:52:13;;;;;;;;;4.00;4.00;20.00;47.80;;;;;;4956373;29;8796;-60
2022/04/01 07:54:40;;;;;;;;;8.33;7.67;20.10;45.70;;;;;;4956286;28;11655;-60
2022/04/01 07:57:07;;;;;;;;;5.00;5.00;19.90;46.10;;;;;;4956035;29;8788;-60
2022/04/01 07:59:34;;;;;;;;;5.67;5.67;20.10;45.20;;;;;;4957313;28;8816;-60
2022/04/01 08:02:00;;;;;;;;;9.00;9.00;20.20;43.70;;;;;;4959810;28;11502;-61
2022/04/01 08:04:27;;;;;;;;;9.00;8.33;20.40;44.60;;;;;;4959547;28;11609;-61
2022/04/01 08:06:54;;;;;;;;;7.33;6.00;20.00;43.90;;;;;;4959741;28;8796;-60
2022/04/01 08:09:20;;;;;;;;;6.33;5.33;19.70;45.00;;;;;;4959634;28;11503;-61
2022/04/01 08:11:46;;;;;;;;;1.00;1.00;19.60;44.70;;;;;;4959703;28;11487;-61
2022/04/01 08:14:12;;;;;;;;;3.00;3.00;19.70;44.70;;;;;;4959723;28;11493;-63
2022/04/01 08:16:38;;;;;;;;;3.67;3.67;19.60;45.70;;;;;;4960000;28;8832;-62
2022/04/01 08:19:04;;;;;;;;;4.00;4.00;19.40;47.20;;;;;;4959611;28;8868;-63
2022/04/01 08:21:31;;;;;;;;;4.00;4.00;18.60;53.70;;;;;;4958502;28;11510;-63
2022/04/01 08:23:58;;;;;;;;;7.33;7.00;18.20;60.40;;;;;;4959371;28;11580;-62
2022/04/01 08:26:25;;;;;;;;;6.67;6.33;18.10;65.10;;;;;;4959397;28;12120;-62
2022/04/01 08:28:51;;;;;;;;;8.67;6.67;18.20;64.40;;;;;;4959229;28;8785;-62
2022/04/01 08:31:17;;;;;;;;;9.00;8.00;18.50;62.70;;;;;;4959342;28;11631;-70
2022/04/01 08:33:44;;;;;;;;;13.33;11.00;19.10;60.30;;;;;;4959060;28;8883;-61
2022/04/01 08:36:10;;;;;;;;;11.00;8.33;19.00;57.90;;;;;;4959599;28;8792;-62
2022/04/01 08:38:36;;;;;;;;;11.00;10.00;18.80;57.60;;;;;;4959555;28;8936;-67
2022/04/01 08:41:02;;;;;;;;;11.00;10.33;19.00;57.70;;;;;;4958938;28;9541;-68
2022/04/01 08:43:42;;;;;;;;;11.33;11.33;19.10;57.50;;;;;;4959090;28;8836;-64
2022/04/01 08:46:09;;;;;;;;;9.00;8.33;18.50;58.70;;;;;;4959340;28;8828;-69
2022/04/01 08:48:36;;;;;;;;;10.67;10.67;18.40;58.30;;;;;;4959320;28;8768;-66
2022/04/01 08:51:02;;;;;;;;;8.67;8.67;18.40;57.30;;;;;;4958389;28;8923;-61
2022/04/01 08:53:28;;;;;;;;;8.00;7.33;18.90;55.40;;;;;;4958711;28;8800;-69
2022/04/01 08:55:56;;;;;;;;;8.00;6.33;19.20;53.70;;;;;;4958732;28;8810;-66
2022/04/01 08:58:23;;;;;;;;;7.33;7.00;19.50;51.90;;;;;;4958351;28;8792;-68
2022/04/01 09:00:51;;;;;;;;;9.00;7.00;19.20;53.10;;;;;;4958717;28;11607;-65
2022/04/01 09:03:21;;;;;;;;;7.33;7.00;18.90;53.90;;;;;;4958942;28;8804;-65
2022/04/01 09:05:53;;;;;;;;;11.33;9.67;19.10;54.20;;;;;;4958814;28;11494;-65
2022/04/01 09:08:30;;;;;;;;;7.00;7.00;19.20;53.80;;;;;;4957133;28;11542;-66
2022/04/01 09:11:16;;;;;;;;;8.33;8.33;19.60;53.70;;;;;;4955993;28;11500;-71
2022/04/01 09:13:50;;;;;;;;;8.67;8.00;19.80;52.50;;;;;;4955292;28;11514;-65
2022/04/01 09:16:41;;;;;;;;;9.00;9.00;19.40;52.30;;;;;;4957432;28;11554;-63
2022/04/01 09:19:09;;;;;;;;;3.00;3.00;19.10;49.60;;;;;;4955781;28;11527;-65
2022/04/01 09:21:39;;;;;;;;;6.00;4.00;18.50;46.00;;;;;;4957054;28;11612;-67
2022/04/01 09:24:06;;;;;;;;;3.00;3.00;18.50;47.20;;;;;;4957004;28;11576;-63
2022/04/01 09:26:38;;;;;;;;;3.67;3.00;18.50;45.90;;;;;;4956950;28;11497;-63
2022/04/01 09:29:05;;;;;;;;;3.33;3.33;18.80;47.00;;;;;;4957260;28;11497;-63
2022/04/01 09:31:37;;;;;;;;;3.00;3.00;18.90;44.80;;;;;;4957444;28;11505;-63
2022/04/01 09:34:09;;;;;;;;;2.33;2.00;19.00;46.00;;;;;;4957851;28;11500;-61
2022/04/01 09:36:37;;;;;;;;;5.00;4.00;19.20;45.20;;;;;;4957858;28;12185;-65
2022/04/01 09:39:09;;;;;;;;;0.67;0.67;19.40;45.10;;;;;;4958107;28;11533;-62
2022/04/01 09:41:43;;;;;;;;;3.00;3.00;19.40;42.20;;;;;;4958035;28;11512;-61
2022/04/01 09:44:20;;;;;;;;;2.67;2.67;19.50;43.30;;;;;;4957938;28;11543;-63
2022/04/01 09:46:52;;;;;;;;;2.75;2.25;19.40;43.20;;;;;;4957797;28;11522;-63
2022/04/01 09:49:36;;;;;;;;;1.75;1.75;19.30;41.80;;;;;;4957500;28;11510;-62
2022/04/01 09:52:08;;;;;;;;;2.00;2.00;19.60;41.50;;;;;;4957937;28;11628;-63
2022/04/01 09:54:49;;;;;;;;;0.50;0.50;19.60;42.00;;;;;;4957794;28;11517;-66
2022/04/01 09:57:18;;;;;;;;;3.00;2.25;19.50;40.60;;;;;;4957837;28;11494;-67
2022/04/01 09:59:45;;;;;;;;;0.50;0.50;19.70;41.10;;;;;;4957992;28;11504;-67
2022/04/01 10:02:12;;;;;;;;;2.00;2.00;19.60;40.00;;;;;;4957704;28;11515;-67
2022/04/01 10:04:38;;;;;;;;;1.00;1.00;19.50;40.80;;;;;;4957605;28;11503;-68
2022/04/01 10:07:04;;;;;;;;;2.00;2.00;19.50;40.80;;;;;;4957799;28;11582;-69
2022/04/01 10:09:30;;;;;;;;;2.00;2.00;19.30;40.40;;;;;;4957513;28;8780;-67
2022/04/01 10:12:01;;;;;;;;;0.25;0.25;19.00;40.70;;;;;;4957423;28;11489;-70
2022/04/01 10:14:27;;;;;;;;;2.50;2.00;19.00;41.00;;;;;;4957373;28;11507;-66
2022/04/01 10:16:55;;;;;;;;;1.25;1.25;19.10;41.30;;;;;;4957294;28;11545;-67
2022/04/01 10:19:34;;;;;;;;;1.67;1.67;19.40;41.20;;;;;;4957514;28;11606;-64
2022/04/01 10:22:01;;;;;;;;;1.75;1.75;19.50;41.00;;;;;;4956883;28;11512;-64
2022/04/01 10:24:49;;;;;;;;;3.00;3.00;19.60;39.80;;;;;;4957126;28;11641;-61
2022/04/01 10:27:26;;;;;;;;;2.25;2.25;19.70;40.70;;;;;;4957078;28;11553;-65
2022/04/01 10:29:56;;;;;;;;;2.00;2.00;19.90;40.40;;;;;;4957119;28;11504;-60
2022/04/01 10:32:26;;;;;;;;;2.00;2.00;20.20;39.80;;;;;;4957319;28;12193;-60
2022/04/01 10:34:54;;;;;;;;;2.00;2.00;20.00;39.70;;;;;;4957059;28;11508;-62
2022/04/01 10:37:22;;;;;;;;;2.00;2.00;19.90;39.70;;;;;;4957013;28;11512;-61
2022/04/01 10:40:00;;;;;;;;;2.00;2.00;20.10;39.70;;;;;;4956921;28;11520;-60
2022/04/01 10:42:35;;;;;;;;;4.25;3.00;20.10;38.90;;;;;;4955670;28;11528;-61
2022/04/01 10:45:06;;;;;;;;;5.67;5.67;20.30;38.90;;;;;;4957000;28;12308;-64
2022/04/01 10:53:40;;;;;;;;;4.25;4.25;20.40;38.60;;;;;;4956579;28;11506;-65
2022/04/01 10:56:23;;;;;;;;;3.00;2.00;20.40;39.00;;;;;;4956705;28;11510;-64
2022/04/01 10:59:17;;;;;;;;;3.00;3.00;20.10;38.50;;;;;;4956598;28;11500;-64
2022/04/01 11:01:52;;;;;;;;;4.00;3.00;20.50;38.40;;;;;;4956564;28;11557;-65
2022/04/01 11:04:18;;;;;;;;;3.25;3.00;20.90;38.60;;;;;;4956477;28;11623;-65
2022/04/01 11:07:06;;;;;;;;;4.00;4.00;21.60;37.50;;;;;;4956408;28;11634;-65
2022/04/01 11:09:47;;;;;;;;;3.25;3.25;21.50;37.50;;;;;;4956482;28;8867;-66
2022/04/01 11:12:15;;;;;;;;;2.75;2.75;21.30;36.50;;;;;;4956472;28;11505;-64
2022/04/01 11:14:59;;;;;;;;;3.00;2.75;21.20;36.90;;;;;;4956526;28;11522;-65
2022/04/01 11:17:51;;;;;;;;;2.00;2.00;21.40;36.90;;;;;;4956624;28;11529;-66
2022/04/01 11:20:21;;;;;;;;;3.25;3.25;21.10;36.80;;;;;;4956287;28;12191;-65
2022/04/01 11:22:52;;;;;;;;;3.00;3.00;20.90;37.10;;;;;;4955964;28;11523;-64
2022/04/01 11:25:33;;;;;;;;;3.00;3.00;20.90;37.30;;;;;;4956446;28;12174;-65
2022/04/01 11:28:01;;;;;;;;;2.50;2.00;21.20;36.30;;;;;;4956186;28;11502;-66
2022/04/01 11:30:55;;;;;;;;;2.50;2.00;20.60;36.80;;;;;;4956310;28;11502;-65
2022/04/01 11:33:22;;;;;;;;;1.50;1.50;20.30;37.30;;;;;;4948080;29;11495;-65
2022/04/01 11:35:57;;;;;;;;;4.33;4.33;20.20;38.00;;;;;;4955835;28;11480;-65
2022/04/01 11:38:25;;;;;;;;;7.33;5.00;20.20;37.50;;;;;;4950437;28;11517;-65
2022/04/01 11:40:54;;;;;;;;;3.00;3.00;20.60;36.80;;;;;;4954822;28;11484;-64
2022/04/01 11:43:21;;;;;;;;;3.67;3.67;20.50;37.80;;;;;;4954691;28;11552;-64
2022/04/01 11:45:57;;;;;;;;;3.00;3.00;20.60;37.30;;;;;;4953258;29;11533;-64
2022/04/01 11:48:41;;;;;;;;;3.00;3.00;20.30;38.20;;;;;;4950412;29;11514;-64
2022/04/01 11:51:19;;;;;;;;;3.00;3.00;20.30;37.60;;;;;;4952761;29;11553;-66
2022/04/01 11:53:51;;;;;;;;;4.33;4.33;20.40;37.80;;;;;;4952635;29;11476;-67
2022/04/01 11:56:20;;;;;;;;;3.00;3.00;20.50;38.20;;;;;;4952633;29;11506;-65
2022/04/01 11:58:52;;;;;;;;;4.00;3.67;20.50;38.20;;;;;;4951233;29;11498;-65
2022/04/01 12:01:19;;;;;;;;;4.33;4.33;20.40;37.00;;;;;;4954571;28;11595;-65
2022/04/01 12:03:45;;;;;;;;;4.00;4.00;20.90;37.20;;;;;;4952173;29;11560;-64
2022/04/01 12:08:55;;;;;;;;;4.00;4.00;20.50;37.20;;;;;;4951633;29;11493;-64
2022/04/01 12:11:21;;;;;;;;;11.00;9.00;20.50;37.40;;;;;;4945264;29;11524;-63
2022/04/01 12:13:49;;;;;;;;;4.00;4.00;20.80;37.90;;;;;;4941392;29;8773;-65
2022/04/01 12:16:16;;;;;;;;;6.50;4.00;20.90;36.90;;;;;;4950143;28;8901;-65
2022/04/01 12:18:46;;;;;;;;;6.00;6.00;21.10;37.00;;;;;;4955998;28;11496;-63
2022/04/01 12:21:17;;;;;;;;;4.00;4.00;20.40;38.00;;;;;;4953465;28;11540;-63
2022/04/01 12:23:48;;;;;;;;;6.33;6.33;20.20;37.90;;;;;;4954450;28;11644;-64
2022/04/01 12:26:18;;;;;;;;;3.25;3.25;20.20;37.40;;;;;;4954358;29;11518;-63
2022/04/01 12:28:48;;;;;;;;;2.50;1.25;20.10;37.60;;;;;;4951773;29;12153;-62
2022/04/01 12:31:24;;;;;;;;;5.67;5.67;20.00;38.20;;;;;;4952340;28;11532;-63
2022/04/01 12:33:52;;;;;;;;;4.00;4.00;20.40;37.70;;;;;;4952384;29;11512;-63
2022/04/01 12:36:35;;;;;;;;;2.25;2.25;20.10;38.00;;;;;;4954676;28;12179;-65
2022/04/01 12:39:10;;;;;;;;;6.00;3.00;20.10;37.90;;;;;;4953970;29;11471;-64
2022/04/01 12:41:52;;;;;;;;;2.33;2.33;20.40;38.10;;;;;;4954349;28;11600;-64
2022/04/01 12:44:21;;;;;;;;;6.33;6.33;20.90;36.40;;;;;;4947947;29;11572;-63
2022/04/01 12:46:48;;;;;;;;;5.00;4.33;21.20;35.40;;;;;;4955736;28;11534;-64
2022/04/01 12:49:18;;;;;;;;;3.67;3.67;21.10;35.50;;;;;;4960393;28;11527;-62
2022/04/01 12:51:51;;;;;;;;;6.00;6.00;21.10;34.60;;;;;;4971167;28;11486;-61
2022/04/01 12:54:49;;;;;;;;;6.33;5.33;21.50;34.00;;;;;;4957673;28;11400;-61
2022/04/01 12:57:16;;;;;;;;;5.67;5.67;21.60;34.00;;;;;;4956388;28;12121;-61
2022/04/01 12:59:48;;;;;;;;;5.00;5.00;23.50;32.80;;;;;;4939380;28;11471;-63
2022/04/01 13:02:16;;;;;;;;;4.00;4.00;25.60;30.30;;;;;;4957534;28;11490;-62
2022/04/01 13:04:47;;;;;;;;;7.50;6.50;26.20;27.70;;;;;;4957348;28;11559;-63
2022/04/01 13:07:22;;;;;;;;;4.50;4.50;24.80;29.60;;;;;;4965210;28;11470;-65
2022/04/01 13:09:57;;;;;;;;;8.00;6.00;26.20;27.90;;;;;;4964015;28;11462;-62
2022/04/01 13:12:34;;;;;;;;;8.50;7.25;24.30;28.90;;;;;;4955143;28;11411;-60
2022/04/01 13:15:03;;;;;;;;;5.00;5.00;23.90;29.70;;;;;;4970751;28;11436;-59